sensor_id;sensor_type;location;lat;lon;timestamp;temperature;humidity
15617;DHT22;7908;51.688;7.130;2022-11-20T00:01:37;-4.10;99.90
15617;DHT22;7908;51.688;7.130;2022-11-20T00:04:07;-4.10;99.90
15617;DHT22;7908;51.688;7.130;2022-11-20T00:06:38;-4.10;99.90
15617;DHT22;7908;51.688;7.130;2022-11-20T00:09:09;-4.10;99.90
15617;DHT22;7908;51.688;7.130;2022-11-20T00:11:38;-4.10;99.90
15617;DHT22;7908;51.688;7.130;2022-11-20T00:14:08;-4.20;99.90
15617;DHT22;7908;51.688;7.130;2022-11-20T00:16:37;-4.20;99.90
15617;DHT22;7908;51.688;7.130;2022-11-20T00:19:05;-4.30;99.90
15617;DHT22;7908;51.688;7.130;2022-11-20T00:21:34;-4.30;99.90
15617;DHT22;7908;51.688;7.130;2022-11-20T00:24:05;-4.40;99.90
15617;DHT22;7908;51.688;7.130;2022-11-20T00:26:34;-4.50;99.90
15617;DHT22;7908;51.688;7.130;2022-11-20T00:29:03;-4.50;99.90
15617;DHT22;7908;51.688;7.130;2022-11-20T00:31:31;-4.50;99.90
15617;DHT22;7908;51.688;7.130;2022-11-20T00:34:01;-4.50;99.90
15617;DHT22;7908;51.688;7.130;2022-11-20T00:36:32;-4.60;99.90
15617;DHT22;7908;51.688;7.130;2022-11-20T00:39:03;-4.60;99.90
15617;DHT22;7908;51.688;7.130;2022-11-20T00:41:32;-4.60;99.90
15617;DHT22;7908;51.688;7.130;2022-11-20T00:44:01;-4.60;99.90
15617;DHT22;7908;51.688;7.130;2022-11-20T00:46:29;-4.70;99.90
15617;DHT22;7908;51.688;7.130;2022-11-20T00:48:58;-4.70;99.90
15617;DHT22;7908;51.688;7.130;2022-11-20T00:51:27;-4.70;99.90
15617;DHT22;7908;51.688;7.130;2022-11-20T00:53:56;-4.70;99.90
15617;DHT22;7908;51.688;7.130;2022-11-20T00:56:26;-4.70;99.90
15617;DHT22;7908;51.688;7.130;2022-11-20T00:58:55;-4.60;99.90
15617;DHT22;7908;51.688;7.130;2022-11-20T01:01:25;-4.60;99.90
15617;DHT22;7908;51.688;7.130;2022-11-20T01:03:58;-4.60;99.90
15617;DHT22;7908;51.688;7.130;2022-11-20T01:06:29;-4.70;99.90
15617;DHT22;7908;51.688;7.130;2022-11-20T01:08:59;-4.70;99.90
15617;DHT22;7908;51.688;7.130;2022-11-20T01:11:32;-4.70;99.90
15617;DHT22;7908;51.688;7.130;2022-11-20T01:14:03;-4.70;99.90
15617;DHT22;7908;51.688;7.130;2022-11-20T01:16:34;-4.70;99.90
15617;DHT22;7908;51.688;7.130;2022-11-20T01:19:05;-4.70;99.90
15617;DHT22;7908;51.688;7.130;2022-11-20T01:21:36;-4.80;99.90
15617;DHT22;7908;51.688;7.130;2022-11-20T01:24:06;-4.90;99.90
15617;DHT22;7908;51.688;7.130;2022-11-20T01:26:38;-4.90;99.90
15617;DHT22;7908;51.688;7.130;2022-11-20T01:29:13;-4.80;99.90
15617;DHT22;7908;51.688;7.130;2022-11-20T01:31:42;-4.80;99.90
15617;DHT22;7908;51.688;7.130;2022-11-20T01:34:12;-4.80;99.90
15617;DHT22;7908;51.688;7.130;2022-11-20T01:36:42;-4.80;99.90
15617;DHT22;7908;51.688;7.130;2022-11-20T01:39:12;-4.80;99.90
15617;DHT22;7908;51.688;7.130;2022-11-20T01:41:45;-4.80;99.90
15617;DHT22;7908;51.688;7.130;2022-11-20T01:44:52;-4.80;99.90
15617;DHT22;7908;51.688;7.130;2022-11-20T01:47:25;-4.80;99.90
15617;DHT22;7908;51.688;7.130;2022-11-20T01:49:58;-4.80;99.90
15617;DHT22;7908;51.688;7.130;2022-11-20T01:52:32;-4.90;99.90
15617;DHT22;7908;51.688;7.130;2022-11-20T01:55:06;-4.90;99.90
15617;DHT22;7908;51.688;7.130;2022-11-20T01:57:38;-4.90;99.90
15617;DHT22;7908;51.688;7.130;2022-11-20T02:00:09;-5.00;99.90
15617;DHT22;7908;51.688;7.130;2022-11-20T02:02:39;-5.00;99.90
15617;DHT22;7908;51.688;7.130;2022-11-20T02:05:14;-5.00;99.90
15617;DHT22;7908;51.688;7.130;2022-11-20T02:07:45;-4.90;99.90
15617;DHT22;7908;51.688;7.130;2022-11-20T02:10:15;-4.90;99.90
15617;DHT22;7908;51.688;7.130;2022-11-20T02:12:45;-4.90;99.90
15617;DHT22;7908;51.688;7.130;2022-11-20T02:15:32;-4.80;99.90
15617;DHT22;7908;51.688;7.130;2022-11-20T02:18:01;-4.80;99.90
15617;DHT22;7908;51.688;7.130;2022-11-20T02:20:30;-4.80;99.90
15617;DHT22;7908;51.688;7.130;2022-11-20T02:23:01;-4.90;99.90
15617;DHT22;7908;51.688;7.130;2022-11-20T02:25:34;-4.90;99.90
15617;DHT22;7908;51.688;7.130;2022-11-20T02:28:04;-5.00;99.90
15617;DHT22;7908;51.688;7.130;2022-11-20T02:30:33;-5.00;99.90
15617;DHT22;7908;51.688;7.130;2022-11-20T02:33:02;-5.00;99.90
15617;DHT22;7908;51.688;7.130;2022-11-20T02:35:42;-5.00;99.90
15617;DHT22;7908;51.688;7.130;2022-11-20T02:38:11;-5.00;99.90
15617;DHT22;7908;51.688;7.130;2022-11-20T02:40:43;-4.90;99.90
15617;DHT22;7908;51.688;7.130;2022-11-20T02:43:11;-4.90;99.90
15617;DHT22;7908;51.688;7.130;2022-11-20T02:45:40;-5.00;99.90
15617;DHT22;7908;51.688;7.130;2022-11-20T02:48:08;-5.10;99.90
15617;DHT22;7908;51.688;7.130;2022-11-20T02:50:38;-5.10;99.90
15617;DHT22;7908;51.688;7.130;2022-11-20T02:53:07;-5.30;99.90
15617;DHT22;7908;51.688;7.130;2022-11-20T02:55:36;-5.30;99.90
15617;DHT22;7908;51.688;7.130;2022-11-20T02:58:06;-5.30;99.90
15617;DHT22;7908;51.688;7.130;2022-11-20T03:00:34;-5.20;99.90
15617;DHT22;7908;51.688;7.130;2022-11-20T03:03:03;-5.20;99.90
15617;DHT22;7908;51.688;7.130;2022-11-20T03:05:32;-5.20;99.90
15617;DHT22;7908;51.688;7.130;2022-11-20T03:08:00;-5.20;99.90
15617;DHT22;7908;51.688;7.130;2022-11-20T03:10:29;-5.10;99.90
15617;DHT22;7908;51.688;7.130;2022-11-20T03:12:57;-5.10;99.90
15617;DHT22;7908;51.688;7.130;2022-11-20T03:15:27;-5.10;99.90
15617;DHT22;7908;51.688;7.130;2022-11-20T03:17:56;-5.20;99.90
15617;DHT22;7908;51.688;7.130;2022-11-20T03:20:24;-5.20;99.90
15617;DHT22;7908;51.688;7.130;2022-11-20T03:22:54;-5.20;99.90
15617;DHT22;7908;51.688;7.130;2022-11-20T03:25:22;-5.10;99.90
15617;DHT22;7908;51.688;7.130;2022-11-20T03:27:51;-5.10;99.90
15617;DHT22;7908;51.688;7.130;2022-11-20T03:30:20;-5.10;99.90
15617;DHT22;7908;51.688;7.130;2022-11-20T03:32:57;-5.20;99.90
15617;DHT22;7908;51.688;7.130;2022-11-20T03:35:26;-5.20;99.90
15617;DHT22;7908;51.688;7.130;2022-11-20T03:37:57;-5.20;99.90
15617;DHT22;7908;51.688;7.130;2022-11-20T03:40:26;-5.20;99.90
15617;DHT22;7908;51.688;7.130;2022-11-20T03:42:54;-5.30;99.90
15617;DHT22;7908;51.688;7.130;2022-11-20T03:45:23;-5.30;99.90
15617;DHT22;7908;51.688;7.130;2022-11-20T03:47:51;-5.30;99.90
15617;DHT22;7908;51.688;7.130;2022-11-20T03:50:21;-5.40;99.90
15617;DHT22;7908;51.688;7.130;2022-11-20T03:52:50;-5.30;99.90
15617;DHT22;7908;51.688;7.130;2022-11-20T03:55:19;-5.40;99.90
15617;DHT22;7908;51.688;7.130;2022-11-20T03:57:48;-5.40;99.90
15617;DHT22;7908;51.688;7.130;2022-11-20T04:00:16;-5.50;99.90
15617;DHT22;7908;51.688;7.130;2022-11-20T04:02:45;-5.50;99.90
15617;DHT22;7908;51.688;7.130;2022-11-20T04:05:14;-5.50;99.90
15617;DHT22;7908;51.688;7.130;2022-11-20T04:07:44;-5.60;99.90
15617;DHT22;7908;51.688;7.130;2022-11-20T04:10:13;-5.60;99.90
15617;DHT22;7908;51.688;7.130;2022-11-20T04:12:42;-5.70;99.90
15617;DHT22;7908;51.688;7.130;2022-11-20T04:15:11;-5.70;99.90
15617;DHT22;7908;51.688;7.130;2022-11-20T04:17:39;-5.70;99.90
15617;DHT22;7908;51.688;7.130;2022-11-20T04:20:09;-5.70;99.90
15617;DHT22;7908;51.688;7.130;2022-11-20T04:22:38;-5.70;99.90
15617;DHT22;7908;51.688;7.130;2022-11-20T04:25:08;-5.70;99.90
15617;DHT22;7908;51.688;7.130;2022-11-20T04:27:37;-5.70;99.90
15617;DHT22;7908;51.688;7.130;2022-11-20T04:30:06;-5.70;99.90
15617;DHT22;7908;51.688;7.130;2022-11-20T04:32:35;-5.70;99.90
15617;DHT22;7908;51.688;7.130;2022-11-20T04:35:04;-5.60;99.90
15617;DHT22;7908;51.688;7.130;2022-11-20T04:37:33;-5.60;99.90
15617;DHT22;7908;51.688;7.130;2022-11-20T04:40:02;-5.50;99.90
15617;DHT22;7908;51.688;7.130;2022-11-20T04:42:32;-5.50;99.90
15617;DHT22;7908;51.688;7.130;2022-11-20T04:45:01;-5.50;99.90
15617;DHT22;7908;51.688;7.130;2022-11-20T04:47:29;-5.50;99.90
15617;DHT22;7908;51.688;7.130;2022-11-20T04:49:58;-5.50;99.90
15617;DHT22;7908;51.688;7.130;2022-11-20T04:52:27;-5.50;99.90
15617;DHT22;7908;51.688;7.130;2022-11-20T04:54:55;-5.40;99.90
15617;DHT22;7908;51.688;7.130;2022-11-20T04:57:24;-5.40;99.90
15617;DHT22;7908;51.688;7.130;2022-11-20T04:59:54;-5.40;99.90
15617;DHT22;7908;51.688;7.130;2022-11-20T05:02:22;-5.40;99.90
15617;DHT22;7908;51.688;7.130;2022-11-20T05:04:51;-5.40;99.90
15617;DHT22;7908;51.688;7.130;2022-11-20T05:07:22;-5.40;99.90
15617;DHT22;7908;51.688;7.130;2022-11-20T05:09:51;-5.40;99.90
15617;DHT22;7908;51.688;7.130;2022-11-20T05:12:19;-5.40;99.90
15617;DHT22;7908;51.688;7.130;2022-11-20T05:14:48;-5.50;99.90
15617;DHT22;7908;51.688;7.130;2022-11-20T05:17:18;-5.50;99.90
15617;DHT22;7908;51.688;7.130;2022-11-20T05:19:46;-5.60;99.90
15617;DHT22;7908;51.688;7.130;2022-11-20T05:22:19;-5.60;99.90
15617;DHT22;7908;51.688;7.130;2022-11-20T05:24:47;-5.60;99.90
15617;DHT22;7908;51.688;7.130;2022-11-20T05:27:16;-5.50;99.90
15617;DHT22;7908;51.688;7.130;2022-11-20T05:29:44;-5.50;99.90
15617;DHT22;7908;51.688;7.130;2022-11-20T05:32:13;-5.40;99.90
15617;DHT22;7908;51.688;7.130;2022-11-20T05:34:43;-5.30;99.90
15617;DHT22;7908;51.688;7.130;2022-11-20T05:37:12;-5.20;99.90
15617;DHT22;7908;51.688;7.130;2022-11-20T05:39:40;-5.20;99.90
15617;DHT22;7908;51.688;7.130;2022-11-20T05:42:09;-5.20;99.90
15617;DHT22;7908;51.688;7.130;2022-11-20T05:44:55;-5.10;99.90
15617;DHT22;7908;51.688;7.130;2022-11-20T05:47:24;-5.10;99.90
15617;DHT22;7908;51.688;7.130;2022-11-20T05:49:55;-5.10;99.90
15617;DHT22;7908;51.688;7.130;2022-11-20T05:52:24;-5.00;99.90
15617;DHT22;7908;51.688;7.130;2022-11-20T05:54:53;-5.00;99.90
15617;DHT22;7908;51.688;7.130;2022-11-20T05:57:22;-4.90;99.90
15617;DHT22;7908;51.688;7.130;2022-11-20T05:59:50;-4.90;99.90
15617;DHT22;7908;51.688;7.130;2022-11-20T06:02:19;-4.80;99.90
15617;DHT22;7908;51.688;7.130;2022-11-20T06:04:47;-4.80;99.90
15617;DHT22;7908;51.688;7.130;2022-11-20T06:07:17;-4.80;99.90
15617;DHT22;7908;51.688;7.130;2022-11-20T06:09:46;-4.80;99.90
15617;DHT22;7908;51.688;7.130;2022-11-20T06:12:15;-4.80;99.90
15617;DHT22;7908;51.688;7.130;2022-11-20T06:14:43;-4.80;99.90
15617;DHT22;7908;51.688;7.130;2022-11-20T06:17:12;-4.70;99.90
15617;DHT22;7908;51.688;7.130;2022-11-20T06:19:41;-4.70;99.90
15617;DHT22;7908;51.688;7.130;2022-11-20T06:22:10;-4.70;99.90
15617;DHT22;7908;51.688;7.130;2022-11-20T06:24:40;-4.70;99.90
15617;DHT22;7908;51.688;7.130;2022-11-20T06:27:08;-4.70;99.90
15617;DHT22;7908;51.688;7.130;2022-11-20T06:29:37;-4.70;99.90
15617;DHT22;7908;51.688;7.130;2022-11-20T06:32:05;-4.70;99.90
15617;DHT22;7908;51.688;7.130;2022-11-20T06:34:34;-4.70;99.90
15617;DHT22;7908;51.688;7.130;2022-11-20T06:37:03;-4.80;99.90
15617;DHT22;7908;51.688;7.130;2022-11-20T06:39:31;-4.80;99.90
15617;DHT22;7908;51.688;7.130;2022-11-20T06:42:01;-4.80;99.90
15617;DHT22;7908;51.688;7.130;2022-11-20T06:44:30;-4.80;99.90
15617;DHT22;7908;51.688;7.130;2022-11-20T06:46:59;-4.90;99.90
15617;DHT22;7908;51.688;7.130;2022-11-20T06:49:28;-4.90;99.90
15617;DHT22;7908;51.688;7.130;2022-11-20T06:51:57;-5.00;99.90
15617;DHT22;7908;51.688;7.130;2022-11-20T06:54:25;-5.00;99.90
15617;DHT22;7908;51.688;7.130;2022-11-20T06:56:54;-5.00;99.90
15617;DHT22;7908;51.688;7.130;2022-11-20T06:59:24;-5.10;99.90
15617;DHT22;7908;51.688;7.130;2022-11-20T07:01:52;-5.00;99.90
15617;DHT22;7908;51.688;7.130;2022-11-20T07:04:21;-5.10;99.90
15617;DHT22;7908;51.688;7.130;2022-11-20T07:06:49;-5.10;99.90
15617;DHT22;7908;51.688;7.130;2022-11-20T07:09:18;-5.20;99.90
15617;DHT22;7908;51.688;7.130;2022-11-20T07:11:46;-5.20;99.90
15617;DHT22;7908;51.688;7.130;2022-11-20T07:14:15;-5.20;99.90
15617;DHT22;7908;51.688;7.130;2022-11-20T07:16:45;-5.20;99.90
15617;DHT22;7908;51.688;7.130;2022-11-20T07:19:14;-5.20;99.90
15617;DHT22;7908;51.688;7.130;2022-11-20T07:21:42;-5.20;99.90
15617;DHT22;7908;51.688;7.130;2022-11-20T07:24:11;-5.20;99.90
15617;DHT22;7908;51.688;7.130;2022-11-20T07:26:39;-5.20;99.90
15617;DHT22;7908;51.688;7.130;2022-11-20T07:29:08;-5.10;99.90
15617;DHT22;7908;51.688;7.130;2022-11-20T07:31:36;-5.20;99.90
15617;DHT22;7908;51.688;7.130;2022-11-20T07:34:06;-5.10;99.90
15617;DHT22;7908;51.688;7.130;2022-11-20T07:36:35;-5.10;99.90
15617;DHT22;7908;51.688;7.130;2022-11-20T07:39:04;-5.10;99.90
15617;DHT22;7908;51.688;7.130;2022-11-20T07:41:33;-5.10;99.90
15617;DHT22;7908;51.688;7.130;2022-11-20T07:44:01;-5.10;99.90
15617;DHT22;7908;51.688;7.130;2022-11-20T07:46:30;-5.10;99.90
15617;DHT22;7908;51.688;7.130;2022-11-20T07:48:58;-5.00;99.90
15617;DHT22;7908;51.688;7.130;2022-11-20T07:51:29;-5.00;99.90
15617;DHT22;7908;51.688;7.130;2022-11-20T07:53:57;-5.00;99.90
15617;DHT22;7908;51.688;7.130;2022-11-20T07:56:26;-5.00;99.90
15617;DHT22;7908;51.688;7.130;2022-11-20T07:58:54;-4.90;99.90
15617;DHT22;7908;51.688;7.130;2022-11-20T08:01:23;-4.90;99.90
15617;DHT22;7908;51.688;7.130;2022-11-20T08:03:52;-4.90;99.90
15617;DHT22;7908;51.688;7.130;2022-11-20T08:06:20;-4.80;99.90
15617;DHT22;7908;51.688;7.130;2022-11-20T08:08:50;-4.80;99.90
15617;DHT22;7908;51.688;7.130;2022-11-20T08:11:19;-4.70;99.90
15617;DHT22;7908;51.688;7.130;2022-11-20T08:14:13;-4.70;99.90
15617;DHT22;7908;51.688;7.130;2022-11-20T08:16:44;-4.60;99.90
15617;DHT22;7908;51.688;7.130;2022-11-20T08:19:15;-4.60;99.90
15617;DHT22;7908;51.688;7.130;2022-11-20T08:21:44;-4.50;99.90
15617;DHT22;7908;51.688;7.130;2022-11-20T08:24:14;-4.50;99.90
15617;DHT22;7908;51.688;7.130;2022-11-20T08:26:43;-4.40;99.90
15617;DHT22;7908;51.688;7.130;2022-11-20T08:29:12;-4.40;99.90
15617;DHT22;7908;51.688;7.130;2022-11-20T08:31:40;-4.30;99.90
15617;DHT22;7908;51.688;7.130;2022-11-20T08:34:09;-4.30;99.90
15617;DHT22;7908;51.688;7.130;2022-11-20T08:36:44;-4.20;99.90
15617;DHT22;7908;51.688;7.130;2022-11-20T08:39:16;-4.10;99.90
15617;DHT22;7908;51.688;7.130;2022-11-20T08:41:45;-4.00;99.90
15617;DHT22;7908;51.688;7.130;2022-11-20T08:44:13;-4.00;99.90
15617;DHT22;7908;51.688;7.130;2022-11-20T08:46:42;-3.90;99.90
15617;DHT22;7908;51.688;7.130;2022-11-20T08:49:13;-3.90;99.90
15617;DHT22;7908;51.688;7.130;2022-11-20T08:51:45;-3.80;99.90
15617;DHT22;7908;51.688;7.130;2022-11-20T08:54:16;-3.70;99.90
15617;DHT22;7908;51.688;7.130;2022-11-20T08:56:47;-3.60;99.90
15617;DHT22;7908;51.688;7.130;2022-11-20T08:59:15;-3.50;99.90
15617;DHT22;7908;51.688;7.130;2022-11-20T09:02:04;-3.50;99.90
15617;DHT22;7908;51.688;7.130;2022-11-20T09:04:33;-3.40;99.90
15617;DHT22;7908;51.688;7.130;2022-11-20T09:07:02;-3.30;99.90
15617;DHT22;7908;51.688;7.130;2022-11-20T09:09:32;-3.30;99.90
15617;DHT22;7908;51.688;7.130;2022-11-20T09:12:01;-3.20;99.90
15617;DHT22;7908;51.688;7.130;2022-11-20T09:14:30;-3.10;99.90
15617;DHT22;7908;51.688;7.130;2022-11-20T09:16:58;-3.00;99.90
15617;DHT22;7908;51.688;7.130;2022-11-20T09:19:27;-2.90;99.90
15617;DHT22;7908;51.688;7.130;2022-11-20T09:22:03;-2.80;99.90
15617;DHT22;7908;51.688;7.130;2022-11-20T09:24:34;-2.80;99.90
15617;DHT22;7908;51.688;7.130;2022-11-20T09:27:04;-2.70;99.90
15617;DHT22;7908;51.688;7.130;2022-11-20T09:29:33;-2.60;99.90
15617;DHT22;7908;51.688;7.130;2022-11-20T09:32:02;-2.50;99.90
15617;DHT22;7908;51.688;7.130;2022-11-20T09:34:31;-2.50;99.90
15617;DHT22;7908;51.688;7.130;2022-11-20T09:37:00;-2.40;99.90
15617;DHT22;7908;51.688;7.130;2022-11-20T09:39:35;-2.30;99.90
15617;DHT22;7908;51.688;7.130;2022-11-20T09:42:27;-2.30;99.90
15617;DHT22;7908;51.688;7.130;2022-11-20T09:45:15;-2.20;99.90
15617;DHT22;7908;51.688;7.130;2022-11-20T09:47:56;-2.00;99.90
15617;DHT22;7908;51.688;7.130;2022-11-20T09:50:32;-2.00;99.90
15617;DHT22;7908;51.688;7.130;2022-11-20T09:53:12;-1.80;99.90
15617;DHT22;7908;51.688;7.130;2022-11-20T09:55:43;-1.70;99.90
15617;DHT22;7908;51.688;7.130;2022-11-20T09:58:19;-1.60;99.90
15617;DHT22;7908;51.688;7.130;2022-11-20T10:00:51;-1.50;99.90
15617;DHT22;7908;51.688;7.130;2022-11-20T10:03:34;-1.40;99.90
15617;DHT22;7908;51.688;7.130;2022-11-20T10:06:05;-1.30;99.90
15617;DHT22;7908;51.688;7.130;2022-11-20T10:08:43;-1.20;99.90
15617;DHT22;7908;51.688;7.130;2022-11-20T10:11:20;-1.10;99.90
15617;DHT22;7908;51.688;7.130;2022-11-20T10:13:56;-1.00;99.90
15617;DHT22;7908;51.688;7.130;2022-11-20T10:16:38;-0.90;99.90
15617;DHT22;7908;51.688;7.130;2022-11-20T10:19:21;-0.80;99.90
15617;DHT22;7908;51.688;7.130;2022-11-20T10:22:01;-0.60;99.90
15617;DHT22;7908;51.688;7.130;2022-11-20T10:24:44;-0.50;99.90
15617;DHT22;7908;51.688;7.130;2022-11-20T10:27:34;-0.50;99.90
15617;DHT22;7908;51.688;7.130;2022-11-20T10:30:09;-0.30;99.90
15617;DHT22;7908;51.688;7.130;2022-11-20T10:32:40;-0.30;99.90
15617;DHT22;7908;51.688;7.130;2022-11-20T10:35:19;-0.20;99.90
15617;DHT22;7908;51.688;7.130;2022-11-20T10:37:51;-0.10;99.90
15617;DHT22;7908;51.688;7.130;2022-11-20T10:40:28;-0.10;99.90
15617;DHT22;7908;51.688;7.130;2022-11-20T10:43:02;0.00;99.90
15617;DHT22;7908;51.688;7.130;2022-11-20T10:45:52;0.10;99.90
15617;DHT22;7908;51.688;7.130;2022-11-20T10:48:23;0.30;99.90
15617;DHT22;7908;51.688;7.130;2022-11-20T10:51:09;0.50;99.90
15617;DHT22;7908;51.688;7.130;2022-11-20T10:53:58;0.60;99.90
15617;DHT22;7908;51.688;7.130;2022-11-20T10:56:38;0.70;99.90
15617;DHT22;7908;51.688;7.130;2022-11-20T10:59:41;0.80;99.90
15617;DHT22;7908;51.688;7.130;2022-11-20T11:02:19;0.90;99.90
15617;DHT22;7908;51.688;7.130;2022-11-20T11:04:50;1.00;99.90
15617;DHT22;7908;51.688;7.130;2022-11-20T11:07:22;1.00;99.90
15617;DHT22;7908;51.688;7.130;2022-11-20T11:09:54;1.20;99.90
15617;DHT22;7908;51.688;7.130;2022-11-20T11:12:25;1.30;99.90
15617;DHT22;7908;51.688;7.130;2022-11-20T11:14:57;1.50;99.90
15617;DHT22;7908;51.688;7.130;2022-11-20T11:17:30;1.60;99.90
15617;DHT22;7908;51.688;7.130;2022-11-20T11:20:07;1.70;99.90
15617;DHT22;7908;51.688;7.130;2022-11-20T11:22:44;1.80;99.90
15617;DHT22;7908;51.688;7.130;2022-11-20T11:25:21;1.90;99.90
15617;DHT22;7908;51.688;7.130;2022-11-20T11:27:53;2.00;99.90
15617;DHT22;7908;51.688;7.130;2022-11-20T11:30:28;2.10;99.90
15617;DHT22;7908;51.688;7.130;2022-11-20T11:33:06;2.20;99.90
15617;DHT22;7908;51.688;7.130;2022-11-20T11:35:45;2.30;99.90
15617;DHT22;7908;51.688;7.130;2022-11-20T11:38:23;2.40;99.90
15617;DHT22;7908;51.688;7.130;2022-11-20T11:40:57;2.50;99.90
15617;DHT22;7908;51.688;7.130;2022-11-20T11:43:29;2.60;99.90
15617;DHT22;7908;51.688;7.130;2022-11-20T11:46:29;2.60;99.90
15617;DHT22;7908;51.688;7.130;2022-11-20T11:49:00;2.70;99.90
15617;DHT22;7908;51.688;7.130;2022-11-20T11:51:34;2.80;99.90
15617;DHT22;7908;51.688;7.130;2022-11-20T11:54:13;2.80;99.90
15617;DHT22;7908;51.688;7.130;2022-11-20T11:56:44;2.90;99.90
15617;DHT22;7908;51.688;7.130;2022-11-20T11:59:16;2.90;99.90
15617;DHT22;7908;51.688;7.130;2022-11-20T12:01:55;2.90;99.90
15617;DHT22;7908;51.688;7.130;2022-11-20T12:04:40;3.00;99.90
15617;DHT22;7908;51.688;7.130;2022-11-20T12:07:13;3.10;99.90
15617;DHT22;7908;51.688;7.130;2022-11-20T12:10:05;3.20;99.90
15617;DHT22;7908;51.688;7.130;2022-11-20T12:12:38;3.20;99.90
15617;DHT22;7908;51.688;7.130;2022-11-20T12:15:11;3.30;99.90
15617;DHT22;7908;51.688;7.130;2022-11-20T12:17:46;3.20;99.90
15617;DHT22;7908;51.688;7.130;2022-11-20T12:20:15;3.30;99.90
15617;DHT22;7908;51.688;7.130;2022-11-20T12:22:48;3.20;99.90
15617;DHT22;7908;51.688;7.130;2022-11-20T12:25:23;3.30;99.90
15617;DHT22;7908;51.688;7.130;2022-11-20T12:31:30;3.40;99.90
15617;DHT22;7908;51.688;7.130;2022-11-20T12:34:23;3.40;99.90
15617;DHT22;7908;51.688;7.130;2022-11-20T12:37:02;3.40;99.90
15617;DHT22;7908;51.688;7.130;2022-11-20T12:39:35;3.40;99.90
15617;DHT22;7908;51.688;7.130;2022-11-20T12:42:38;3.40;99.90
15617;DHT22;7908;51.688;7.130;2022-11-20T12:48:41;3.40;99.90
15617;DHT22;7908;51.688;7.130;2022-11-20T12:51:27;3.40;99.90
15617;DHT22;7908;51.688;7.130;2022-11-20T12:57:06;3.40;99.90
15617;DHT22;7908;51.688;7.130;2022-11-20T12:59:56;3.40;99.90
15617;DHT22;7908;51.688;7.130;2022-11-20T13:02:34;3.40;99.90
15617;DHT22;7908;51.688;7.130;2022-11-20T13:05:20;3.30;99.90
15617;DHT22;7908;51.688;7.130;2022-11-20T13:07:53;3.30;99.90
15617;DHT22;7908;51.688;7.130;2022-11-20T13:10:29;3.30;99.90
15617;DHT22;7908;51.688;7.130;2022-11-20T13:13:03;3.30;99.90
15617;DHT22;7908;51.688;7.130;2022-11-20T13:15:45;3.30;99.90
15617;DHT22;7908;51.688;7.130;2022-11-20T13:18:16;3.30;99.90
15617;DHT22;7908;51.688;7.130;2022-11-20T13:20:46;3.20;99.90
15617;DHT22;7908;51.688;7.130;2022-11-20T13:23:25;3.30;99.90
15617;DHT22;7908;51.688;7.130;2022-11-20T13:26:05;3.30;99.90
15617;DHT22;7908;51.688;7.130;2022-11-20T13:28:36;3.30;99.90
15617;DHT22;7908;51.688;7.130;2022-11-20T13:31:04;3.40;99.90
15617;DHT22;7908;51.688;7.130;2022-11-20T13:33:35;3.40;99.90
15617;DHT22;7908;51.688;7.130;2022-11-20T13:36:07;3.40;99.90
15617;DHT22;7908;51.688;7.130;2022-11-20T13:38:46;3.40;99.90
15617;DHT22;7908;51.688;7.130;2022-11-20T13:41:24;3.50;99.90
15617;DHT22;7908;51.688;7.130;2022-11-20T13:44:04;3.50;99.90
15617;DHT22;7908;51.688;7.130;2022-11-20T13:46:37;3.40;99.90
15617;DHT22;7908;51.688;7.130;2022-11-20T13:49:09;3.50;99.90
15617;DHT22;7908;51.688;7.130;2022-11-20T13:51:43;3.50;99.90
15617;DHT22;7908;51.688;7.130;2022-11-20T13:57:57;3.50;99.90
15617;DHT22;7908;51.688;7.130;2022-11-20T14:00:28;3.50;99.90
15617;DHT22;7908;51.688;7.130;2022-11-20T14:03:07;3.40;99.90
15617;DHT22;7908;51.688;7.130;2022-11-20T14:05:45;3.40;99.90
15617;DHT22;7908;51.688;7.130;2022-11-20T14:08:24;3.40;99.90
15617;DHT22;7908;51.688;7.130;2022-11-20T14:11:06;3.40;99.90
15617;DHT22;7908;51.688;7.130;2022-11-20T14:13:57;3.40;99.90
15617;DHT22;7908;51.688;7.130;2022-11-20T14:16:28;3.40;99.90
15617;DHT22;7908;51.688;7.130;2022-11-20T14:19:00;3.30;99.90
15617;DHT22;7908;51.688;7.130;2022-11-20T14:21:46;3.30;99.90
15617;DHT22;7908;51.688;7.130;2022-11-20T14:24:19;3.30;99.90
15617;DHT22;7908;51.688;7.130;2022-11-20T14:26:50;3.30;99.90
15617;DHT22;7908;51.688;7.130;2022-11-20T14:29:23;3.30;99.90
15617;DHT22;7908;51.688;7.130;2022-11-20T14:31:57;3.20;99.90
15617;DHT22;7908;51.688;7.130;2022-11-20T14:34:28;3.20;99.90
15617;DHT22;7908;51.688;7.130;2022-11-20T14:36:59;3.20;99.90
15617;DHT22;7908;51.688;7.130;2022-11-20T14:39:32;3.20;99.90
15617;DHT22;7908;51.688;7.130;2022-11-20T14:42:01;3.20;99.90
15617;DHT22;7908;51.688;7.130;2022-11-20T14:44:33;3.20;99.90
15617;DHT22;7908;51.688;7.130;2022-11-20T14:47:05;3.10;99.90
15617;DHT22;7908;51.688;7.130;2022-11-20T14:49:38;3.10;99.90
15617;DHT22;7908;51.688;7.130;2022-11-20T14:52:13;3.10;99.90
15617;DHT22;7908;51.688;7.130;2022-11-20T14:54:46;3.10;99.90
15617;DHT22;7908;51.688;7.130;2022-11-20T14:57:22;3.10;99.90
15617;DHT22;7908;51.688;7.130;2022-11-20T15:00:07;3.10;99.90
15617;DHT22;7908;51.688;7.130;2022-11-20T15:02:40;3.10;99.90
15617;DHT22;7908;51.688;7.130;2022-11-20T15:05:10;3.00;99.90
15617;DHT22;7908;51.688;7.130;2022-11-20T15:07:40;3.00;99.90
15617;DHT22;7908;51.688;7.130;2022-11-20T15:10:19;3.00;99.90
15617;DHT22;7908;51.688;7.130;2022-11-20T15:12:51;3.00;99.90
15617;DHT22;7908;51.688;7.130;2022-11-20T15:15:25;2.90;99.90
15617;DHT22;7908;51.688;7.130;2022-11-20T15:17:58;2.90;99.90
15617;DHT22;7908;51.688;7.130;2022-11-20T15:20:29;2.90;99.90
15617;DHT22;7908;51.688;7.130;2022-11-20T15:22:58;2.90;99.90
15617;DHT22;7908;51.688;7.130;2022-11-20T15:25:27;2.90;99.90
15617;DHT22;7908;51.688;7.130;2022-11-20T15:27:56;2.90;99.90
15617;DHT22;7908;51.688;7.130;2022-11-20T15:30:27;2.80;99.90
15617;DHT22;7908;51.688;7.130;2022-11-20T15:32:55;2.90;99.90
15617;DHT22;7908;51.688;7.130;2022-11-20T15:35:24;2.80;99.90
15617;DHT22;7908;51.688;7.130;2022-11-20T15:37:53;2.80;99.90
15617;DHT22;7908;51.688;7.130;2022-11-20T15:40:22;2.80;99.90
15617;DHT22;7908;51.688;7.130;2022-11-20T15:42:51;2.70;99.90
15617;DHT22;7908;51.688;7.130;2022-11-20T15:45:42;2.60;99.90
15617;DHT22;7908;51.688;7.130;2022-11-20T15:48:14;2.60;99.90
15617;DHT22;7908;51.688;7.130;2022-11-20T15:50:51;2.50;99.90
15617;DHT22;7908;51.688;7.130;2022-11-20T15:53:21;2.40;99.90
15617;DHT22;7908;51.688;7.130;2022-11-20T15:55:50;2.40;99.90
15617;DHT22;7908;51.688;7.130;2022-11-20T15:58:19;2.40;99.90
15617;DHT22;7908;51.688;7.130;2022-11-20T16:00:51;2.40;99.90
15617;DHT22;7908;51.688;7.130;2022-11-20T16:03:21;2.40;99.90
15617;DHT22;7908;51.688;7.130;2022-11-20T16:05:50;2.40;99.90
15617;DHT22;7908;51.688;7.130;2022-11-20T16:08:19;2.30;99.90
15617;DHT22;7908;51.688;7.130;2022-11-20T16:10:47;2.30;99.90
15617;DHT22;7908;51.688;7.130;2022-11-20T16:13:17;2.30;99.90
15617;DHT22;7908;51.688;7.130;2022-11-20T16:16:07;2.30;99.90
15617;DHT22;7908;51.688;7.130;2022-11-20T16:18:38;2.30;99.90
15617;DHT22;7908;51.688;7.130;2022-11-20T16:21:11;2.30;99.90
15617;DHT22;7908;51.688;7.130;2022-11-20T16:23:40;2.20;99.90
15617;DHT22;7908;51.688;7.130;2022-11-20T16:26:10;2.30;99.90
15617;DHT22;7908;51.688;7.130;2022-11-20T16:28:40;2.20;99.90
15617;DHT22;7908;51.688;7.130;2022-11-20T16:31:11;2.20;99.90
15617;DHT22;7908;51.688;7.130;2022-11-20T16:33:40;2.20;99.90
15617;DHT22;7908;51.688;7.130;2022-11-20T16:36:11;2.20;99.90
15617;DHT22;7908;51.688;7.130;2022-11-20T16:38:40;2.20;99.90